Springfield, OH (45505)

7:00 AM EDT on September 23, 2014 (GMT -0400)
Werner Ent. Springfield, OH | Change Station
CLOSE
Current Station
Personal Weather Station
Location: Springfield, OH
Elevation: 1048 ft
Nearby Weather Stations

Elev 1048 ft 39.90 °N, 83.73 °W | Updated 18 seconds ago

Clear
Clear
44.5 °F
Feels Like 44 °F
N
0.0
Wind Variable Wind from SE
Gusts 0.0 mph

Today
High -- | Low -- °F
--% Chance of Precip.
Yesterday
High -- | Low -- °F
Precip. -- in
7:23 AM 7:30 PM
Waning Crescent, 1% visible
Pressure 30.32 in
Visibility 9.0 miles
Clouds Clear
Windchill 44 °F
Dew Point 41 °F
Humidity 88%
Rainfall 0.00 in
Snow Depth Not available.
UV 0.0 out of 12
Pollen 3.80 out of 12
Ozone Good
PM2.5 Good
Flu Activity Not available.
METAR KSGH 230956Z AUTO 00000KT 9SM CLR 04/04 A3032 RMK AO2 T00440038 SLP267

More Conditions Fewer Conditions

Pressure 30.32 in
Visibility 9.0 miles
Clouds Clear
Windchill 44 °F
Dew Point 41 °F
Humidity 88%
Rainfall 0.00 in
Snow Depth Not available.
UV 0.0 out of 12
Pollen 3.80 out of 12
Ozone Good
PM2.5 Good
Flu Activity Not available.
METAR KSGH 230956Z AUTO 00000KT 9SM CLR 04/04 A3032 RMK AO2 T00440038 SLP267

More Conditions Fewer Conditions

10-Day Weather Forecast

Almanac

Astronomy

Sep. 23, 2014 Rise Set
Actual Time 7:23 AM EDT 7:30 PM EDT
Civil Twilight 6:56 AM EDT 7:57 PM EDT
Nautical Twilight 6:25 AM EDT 8:29 PM EDT
Astronomical Twilight 5:52 AM EDT 9:01 PM EDT
Moon 6:47 AM EDT 7:08 PM EDT
Length of Visible Light 13h 00m
Length of Day
12h 06m
Tomorrow will be 2m 36s shorter.
Waning Crescent, 1% of the Moon is Illuminated
Today
Waning Crescent
Sep 24
New
Oct 1
First Quarter
Oct 8
Full
Oct 15
Last Quarter

Today's Extremes

State Highs State Lows

Community

WunderPhotos

Upload Photos

1,755,645 photos uploaded!

Nearby

Air Quality

  Air Quality AQ Index Pollutant
Yesterday Good
OZONE
Yesterday Good
PM2.5
Current Good
PM2.5
Current Good
OZONE
Tuesday Good
OZONE
Tuesday Good
PM2.5
Wednesday Good
OZONE
Wednesday Good
PM2.5
Thursday Good
OZONE
Thursday Good
PM2.5
Friday Good
PM2.5
Friday Good
OZONE

Snow Depth

Station Depth Elevation
No new snow has been reported.

Earthquake Activity

City Distance Mag. Time & Date
No recent earthquake activity has been reported nearby.
Minimum magnitude displayed is 2.5.

Coastal Water Temperatures

Place Temperature
No Stations Reporting

Nearby Weather Stations